EST,Max TemperatureF,Mean TemperatureF,Min TemperatureF,Max Dew PointF,MeanDew PointF,Min DewpointF,Max Humidity, Mean Humidity, Min Humidity, Max Sea Level PressureIn, Mean Sea Level PressureIn, Min Sea Level PressureIn, Max VisibilityMiles, Mean VisibilityMiles, Min VisibilityMiles, Max Wind SpeedMPH, Mean Wind SpeedMPH, Max Gust SpeedMPH,PrecipitationIn, CloudCover, Events, WindDirDegrees
2013-1-1,76,66,56,64,59,53,96,83,55,30.24,30.14,30.07,10,9,2,10,2,,0.00,3,,167
2013-1-2,75,67,59,68,62,57,94,85,67,30.10,30.06,30.00,10,10,2,10,6,,0.00,3,,191
2013-1-3,71,66,60,66,63,60,100,94,80,30.18,30.10,30.05,10,6,0,15,4,22,0.01,4,Fog-Rain,323
2013-1-4,66,64,61,64,62,59,100,94,88,30.27,30.21,30.14,10,10,10,16,11,23,0.01,8,,340
2013-1-5,74,67,60,68,63,56,100,87,65,30.30,30.25,30.21,10,9,2,15,10,,0.05,7,Rain,1
2013-1-6,73,68,64,70,66,63,100,94,87,30.22,30.16,30.08,10,6,0,20,5,23,0.25,6,Fog-Rain,348
2013-1-7,71,67,63,66,63,59,95,85,73,30.22,30.16,30.13,10,10,10,20,13,23,0.00,7,,3
2013-1-8,74,72,69,70,68,66,95,90,82,30.25,30.18,30.14,10,10,5,10,7,,0.02,6,Rain,80
2013-1-9,77,73,69,71,69,66,100,90,80,30.33,30.27,30.22,10,8,3,14,7,,0.00,0,Rain,127
2013-1-10,77,74,69,70,69,66,93,85,74,30.34,30.29,30.25,10,10,7,14,9,,0.00,2,Rain,119
2013-1-11,77,72,68,70,68,66,100,89,72,30.30,30.24,30.19,10,8,2,17,7,18,0.00,1,,139
2013-1-12,76,70,64,70,66,64,100,92,71,30.22,30.18,30.13,10,4,0,9,2,,0.00,0,Fog,68
2013-1-13,78,73,68,67,66,63,90,80,60,30.18,30.14,30.10,10,10,8,12,8,,0.00,0,,137
2013-1-14,77,72,66,68,66,64,94,85,70,30.21,30.18,30.15,10,8,2,9,6,,0.00,0,,144
2013-1-15,76,72,68,68,67,65,94,84,72,30.17,30.13,30.09,10,9,2,13,4,,0.00,0,,147
2013-1-16,78,72,65,69,66,61,93,82,55,30.13,30.08,30.04,10,10,10,13,5,,0.00,0,,185
2013-1-17,82,70,56,68,60,47,89,75,52,30.09,30.04,29.93,10,10,10,26,14,34,0.00,1,,252
2013-1-18,69,58,46,61,52,38,88,74,60,30.27,30.22,30.11,10,9,2,28,19,32,0.07,4,Rain,25
2013-1-19,71,68,66,65,62,58,88,80,71,30.28,30.22,30.14,10,9,2,23,18,29,0.06,4,Rain,60
2013-1-20,71,66,62,65,63,60,94,87,78,30.19,30.13,30.08,10,10,5,17,12,,0.04,4,Rain,9
2013-1-21,73,69,65,66,62,58,92,80,70,30.10,30.05,30.01,10,10,10,14,8,16,0.00,4,Rain,14
2013-1-22,68,63,57,58,48,43,77,60,44,30.28,30.18,30.06,10,10,10,21,14,29,0.00,1,,346
2013-1-23,67,61,55,49,45,38,73,59,45,30.36,30.31,30.28,10,10,10,15,12,,0.00,0,,336
2013-1-24,70,60,51,55,48,42,82,65,43,30.34,30.29,30.25,10,10,10,12,6,,0.00,0,,291
2013-1-25,73,64,56,57,53,49,89,73,43,30.32,30.26,30.20,10,10,10,9,6,,0.00,0,,308
2013-1-26,70,62,55,59,53,48,90,71,51,30.30,30.24,30.19,10,10,10,13,6,,0.00,0,,333
2013-1-27,73,66,58,66,61,56,94,80,62,30.34,30.29,30.25,10,10,10,17,8,,0.00,3,Rain,32
2013-1-28,73,70,68,68,65,63,95,85,73,30.37,30.30,30.28,10,9,4,15,11,,0.01,5,Rain,105
2013-1-29,76,70,64,69,66,64,100,90,75,30.27,30.22,30.14,10,8,2,14,7,,0.00,0,,98
2013-1-30,78,72,67,67,65,61,92,75,55,30.14,30.03,29.94,10,10,4,23,12,30,0.00,0,,173
2013-1-31,70,62,55,66,50,34,94,71,32,30.24,30.07,29.93,10,9,4,31,18,37,0.04,5,Rain,309